Time;durP1;ratioP1;P1;durP2;ratioP2;P2;SDS_P1;SDS_P2;PMS_P1;PMS_P2;Temp;Humidity;BMP_temperature;BMP_pressure;BME280_temperature;BME280_humidity;BME280_pressure;Samples;Min_cycle;Max_cycle;Signal;HPM_P1;HPM_P2
2022/04/19 00:02:01;;;;;;;7.85;3.20;;;;;;;;;;5125373;27;20030;-77
2022/04/19 00:04:26;;;;;;;5.38;3.08;;;;;;;;;;5119809;27;20078;-76
2022/04/19 00:06:51;;;;;;;5.50;3.10;;;;;;;;;;5112807;28;20024;-75
2022/04/19 00:09:17;;;;;;;7.22;3.25;;;;;;;;;;5111681;28;20023;-76
2022/04/19 00:11:42;;;;;;;5.22;2.85;;;;;;;;;;5113137;28;20034;-76
2022/04/19 00:14:08;;;;;;;5.72;2.97;;;;;;;;;;5113203;28;20049;-77
2022/04/19 00:16:33;;;;;;;5.82;3.17;;;;;;;;;;5112539;28;20075;-76
2022/04/19 00:18:58;;;;;;;5.28;3.03;;;;;;;;;;5112798;28;20468;-80
2022/04/19 00:21:23;;;;;;;9.60;3.83;;;;;;;;;;5113098;28;20031;-75
2022/04/19 00:23:49;;;;;;;6.28;3.28;;;;;;;;;;5113398;28;20027;-76
2022/04/19 00:26:15;;;;;;;6.45;3.75;;;;;;;;;;5113253;28;20449;-77
2022/04/19 00:28:41;;;;;;;5.55;3.17;;;;;;;;;;5111527;28;20019;-75
2022/04/19 00:31:07;;;;;;;5.95;3.60;;;;;;;;;;5111999;28;20031;-74
2022/04/19 00:33:32;;;;;;;7.95;3.90;;;;;;;;;;5111794;28;20486;-74
2022/04/19 00:35:57;;;;;;;9.73;3.38;;;;;;;;;;5112011;27;20016;-73
2022/04/19 00:38:23;;;;;;;5.78;3.30;;;;;;;;;;5113035;28;20025;-77
2022/04/19 00:40:48;;;;;;;6.47;3.47;;;;;;;;;;5113978;28;20028;-78
2022/04/19 00:43:16;;;;;;;6.32;3.50;;;;;;;;;;5111994;28;20027;-74
2022/04/19 00:45:41;;;;;;;7.47;3.25;;;;;;;;;;5113106;28;20080;-75
2022/04/19 00:48:07;;;;;;;9.07;3.05;;;;;;;;;;5112565;28;20032;-74
2022/04/19 00:50:32;;;;;;;6.05;3.17;;;;;;;;;;5112638;28;20024;-75
2022/04/19 00:52:58;;;;;;;6.97;3.33;;;;;;;;;;5112333;28;20019;-75
2022/04/19 00:55:23;;;;;;;6.10;3.38;;;;;;;;;;5115466;28;20038;-77
2022/04/19 00:57:50;;;;;;;6.32;3.47;;;;;;;;;;5117300;28;20438;-76
2022/04/19 01:00:15;;;;;;;6.35;3.47;;;;;;;;;;5113209;28;20027;-74
2022/04/19 01:02:40;;;;;;;8.27;3.75;;;;;;;;;;5112450;28;20011;-76
2022/04/19 01:05:07;;;;;;;8.38;3.45;;;;;;;;;;5112199;28;20019;-75
2022/04/19 01:07:33;;;;;;;5.43;2.90;;;;;;;;;;5128439;27;20033;-75
2022/04/19 01:09:58;;;;;;;5.80;3.38;;;;;;;;;;5132240;27;20026;-75
2022/04/19 01:15:08;;;;;;;5.07;3.28;;;;;;;;;;5133166;27;20547;-74
2022/04/19 01:17:35;;;;;;;7.28;3.13;;;;;;;;;;5116288;27;20130;-76
2022/04/19 01:20:02;;;;;;;7.05;3.70;;;;;;;;;;5111618;28;20022;-74
2022/04/19 01:22:32;;;;;;;5.22;3.03;;;;;;;;;;5112063;28;20015;-76
2022/04/19 01:24:58;;;;;;;6.07;3.20;;;;;;;;;;5112826;28;20059;-75
2022/04/19 01:27:23;;;;;;;5.95;3.13;;;;;;;;;;5112493;28;20070;-76
2022/04/19 01:29:48;;;;;;;8.52;3.40;;;;;;;;;;5117006;28;20031;-76
2022/04/19 01:32:14;;;;;;;5.57;3.30;;;;;;;;;;5117509;28;20103;-76
2022/04/19 01:34:39;;;;;;;7.20;3.30;;;;;;;;;;5117326;28;20511;-79
2022/04/19 01:37:04;;;;;;;7.68;2.90;;;;;;;;;;5112953;28;20134;-74
2022/04/19 01:42:14;;;;;;;8.73;3.90;;;;;;;;;;5111288;28;20027;-75
2022/04/19 01:44:41;;;;;;;5.65;3.33;;;;;;;;;;5110753;28;20020;-77
2022/04/19 01:47:07;;;;;;;5.38;2.83;;;;;;;;;;5115927;27;20022;-74
2022/04/19 01:49:34;;;;;;;5.50;2.78;;;;;;;;;;5131266;27;20102;-74
2022/04/19 01:52:00;;;;;;;8.23;3.33;;;;;;;;;;5132231;27;20019;-75
2022/04/19 01:54:25;;;;;;;6.00;2.83;;;;;;;;;;5133015;27;20019;-76
2022/04/19 01:56:50;;;;;;;4.75;2.50;;;;;;;;;;5132338;27;20015;-75
2022/04/19 01:59:15;;;;;;;5.60;3.05;;;;;;;;;;5132149;27;20015;-75
2022/04/19 02:01:41;;;;;;;5.70;3.17;;;;;;;;;;5131995;27;20409;-75
2022/04/19 02:04:08;;;;;;;5.82;3.22;;;;;;;;;;5132154;27;20030;-74
2022/04/19 02:06:33;;;;;;;5.88;3.10;;;;;;;;;;5132348;27;20068;-74
2022/04/19 02:09:00;;;;;;;4.90;2.83;;;;;;;;;;5115762;27;20019;-76
2022/04/19 02:11:25;;;;;;;7.88;3.40;;;;;;;;;;5112795;28;20046;-78
2022/04/19 02:13:51;;;;;;;7.30;3.20;;;;;;;;;;5111264;28;20020;-75
2022/04/19 02:16:17;;;;;;;6.47;3.00;;;;;;;;;;5112381;28;20504;-75
2022/04/19 02:18:43;;;;;;;7.72;3.05;;;;;;;;;;5110862;28;20035;-75
2022/04/19 02:21:08;;;;;;;7.45;3.35;;;;;;;;;;5110659;28;20500;-76
2022/04/19 02:23:34;;;;;;;4.60;2.92;;;;;;;;;;5111058;28;20059;-76
2022/04/19 02:26:02;;;;;;;5.70;3.15;;;;;;;;;;5111005;28;20035;-74
2022/04/19 02:28:27;;;;;;;5.95;3.08;;;;;;;;;;5110944;28;20089;-75
2022/04/19 02:30:53;;;;;;;6.90;3.45;;;;;;;;;;5113419;28;20380;-74
2022/04/19 02:33:18;;;;;;;7.35;3.42;;;;;;;;;;5111439;28;20015;-75
2022/04/19 02:35:43;;;;;;;15.35;3.90;;;;;;;;;;5111190;28;20126;-74
2022/04/19 02:38:09;;;;;;;6.85;3.83;;;;;;;;;;5110963;28;20446;-75
2022/04/19 02:40:35;;;;;;;5.88;3.42;;;;;;;;;;5110945;28;20497;-74
2022/04/19 02:43:00;;;;;;;10.50;4.20;;;;;;;;;;5110692;28;20091;-76
2022/04/19 02:45:25;;;;;;;6.75;4.03;;;;;;;;;;5111183;28;20024;-75
2022/04/19 02:48:04;;;;;;;7.53;4.00;;;;;;;;;;5113532;28;20129;-75
2022/04/19 02:50:33;;;;;;;6.03;3.72;;;;;;;;;;5119231;27;20036;-75
2022/04/19 02:52:58;;;;;;;9.23;3.85;;;;;;;;;;5110878;28;20471;-74
2022/04/19 02:55:24;;;;;;;7.95;4.05;;;;;;;;;;5112201;28;20065;-75
2022/04/19 02:57:49;;;;;;;7.93;4.03;;;;;;;;;;5114888;28;20107;-75
2022/04/19 03:00:14;;;;;;;8.63;4.18;;;;;;;;;;5114027;28;20030;-76
2022/04/19 03:02:40;;;;;;;7.07;4.00;;;;;;;;;;5116127;27;20034;-75
2022/04/19 03:05:05;;;;;;;9.10;4.15;;;;;;;;;;5123196;27;20026;-76
2022/04/19 03:07:30;;;;;;;5.85;3.70;;;;;;;;;;5136123;27;20086;-78
2022/04/19 03:09:55;;;;;;;9.15;3.42;;;;;;;;;;5123697;27;20081;-80
2022/04/19 03:12:21;;;;;;;7.18;3.30;;;;;;;;;;5114996;28;20023;-74
2022/04/19 03:14:46;;;;;;;6.53;3.40;;;;;;;;;;5114369;28;20022;-75
2022/04/19 03:17:11;;;;;;;6.35;2.88;;;;;;;;;;5113876;28;20139;-74
2022/04/19 03:19:36;;;;;;;5.65;3.50;;;;;;;;;;5114012;28;20047;-75
2022/04/19 03:22:03;;;;;;;6.47;3.10;;;;;;;;;;5127864;27;20525;-75
2022/04/19 03:29:59;;;;;;;6.10;3.60;;;;;;;;;;5114180;28;20038;-78
2022/04/19 03:32:24;;;;;;;8.00;3.92;;;;;;;;;;5114018;28;20019;-75
2022/04/19 03:34:50;;;;;;;6.32;3.45;;;;;;;;;;5113287;28;20022;-75
2022/04/19 03:37:19;;;;;;;6.18;3.42;;;;;;;;;;5111061;28;20028;-75
2022/04/19 03:39:44;;;;;;;6.55;3.47;;;;;;;;;;5111709;28;20088;-76
2022/04/19 03:42:09;;;;;;;4.97;3.30;;;;;;;;;;5112966;28;20464;-74
2022/04/19 03:44:35;;;;;;;5.88;3.25;;;;;;;;;;5113285;28;20031;-74
2022/04/19 03:47:07;;;;;;;6.82;3.30;;;;;;;;;;5114613;28;20019;-76
2022/04/19 03:49:36;;;;;;;6.13;3.50;;;;;;;;;;5113203;28;20019;-75
2022/04/19 03:52:05;;;;;;;7.63;3.53;;;;;;;;;;5113937;27;20023;-76
2022/04/19 03:54:37;;;;;;;6.93;3.70;;;;;;;;;;5113512;28;20495;-75
2022/04/19 03:57:04;;;;;;;7.10;3.67;;;;;;;;;;5111646;28;20034;-76
2022/04/19 03:59:29;;;;;;;6.75;3.55;;;;;;;;;;5113330;28;20020;-75
2022/04/19 04:01:55;;;;;;;9.05;4.60;;;;;;;;;;5112945;28;20530;-74
2022/04/19 04:04:21;;;;;;;6.05;3.90;;;;;;;;;;5112544;28;20024;-75
2022/04/19 04:06:48;;;;;;;5.28;3.17;;;;;;;;;;5113924;27;20034;-77
2022/04/19 04:09:13;;;;;;;5.63;3.45;;;;;;;;;;5113460;27;20681;-76
2022/04/19 04:11:41;;;;;;;6.55;3.58;;;;;;;;;;5113206;28;20491;-75
2022/04/19 04:14:06;;;;;;;6.80;3.95;;;;;;;;;;5114149;27;20072;-74
2022/04/19 04:16:38;;;;;;;8.18;3.33;;;;;;;;;;5113029;28;20048;-75
2022/04/19 04:19:03;;;;;;;5.95;3.58;;;;;;;;;;5116791;27;20039;-75
2022/04/19 04:21:34;;;;;;;5.55;3.20;;;;;;;;;;5135897;27;20018;-76
2022/04/19 04:23:59;;;;;;;8.88;3.22;;;;;;;;;;5131298;27;20027;-75
2022/04/19 04:26:25;;;;;;;5.88;2.80;;;;;;;;;;5115257;27;20103;-76
2022/04/19 04:28:50;;;;;;;6.80;3.47;;;;;;;;;;5113071;28;20015;-75
2022/04/19 04:31:15;;;;;;;10.88;3.00;;;;;;;;;;5111918;28;20088;-74
2022/04/19 04:33:40;;;;;;;5.72;3.22;;;;;;;;;;5112527;28;20020;-75
2022/04/19 04:36:06;;;;;;;8.00;3.45;;;;;;;;;;5124192;27;20034;-75
2022/04/19 04:38:31;;;;;;;6.38;3.67;;;;;;;;;;5132897;27;20029;-74
2022/04/19 04:40:56;;;;;;;7.65;3.45;;;;;;;;;;5131385;27;20027;-74
2022/04/19 04:43:22;;;;;;;7.43;3.63;;;;;;;;;;5132512;27;20023;-75
2022/04/19 04:49:35;;;;;;;8.98;4.00;;;;;;;;;;5129658;27;20024;-76
2022/04/19 04:51:19;;;;;;;7.38;4.22;;;;;;;;;;5123490;27;20083;-75
2022/04/19 04:53:44;;;;;;;6.10;3.57;;;;;;;;;;5125878;27;20074;-75
2022/04/19 04:56:09;;;;;;;5.88;3.47;;;;;;;;;;5123067;27;20807;-73
2022/04/19 04:58:34;;;;;;;7.47;2.87;;;;;;;;;;5122445;27;20929;-75
2022/04/19 05:01:02;;;;;;;7.35;3.65;;;;;;;;;;5122827;27;20796;-74
2022/04/19 05:03:51;;;;;;;10.70;3.60;;;;;;;;;;5120618;27;20468;-76
2022/04/19 05:06:16;;;;;;;8.13;3.33;;;;;;;;;;5124277;27;20058;-75
2022/04/19 05:08:41;;;;;;;4.95;3.05;;;;;;;;;;5120299;27;20051;-75
2022/04/19 05:11:07;;;;;;;7.00;4.10;;;;;;;;;;5124633;27;20075;-75
2022/04/19 05:13:32;;;;;;;7.70;3.90;;;;;;;;;;5122518;27;20379;-75
2022/04/19 05:16:01;;;;;;;6.13;3.35;;;;;;;;;;5125831;27;20061;-77
2022/04/19 05:18:26;;;;;;;8.07;3.90;;;;;;;;;;5121367;27;20048;-76
2022/04/19 05:20:52;;;;;;;8.38;3.55;;;;;;;;;;5135916;27;20004;-78
2022/04/19 05:23:18;;;;;;;6.55;3.60;;;;;;;;;;5129353;27;20020;-78
2022/04/19 05:25:43;;;;;;;7.35;4.45;;;;;;;;;;5129648;27;20032;-86
2022/04/19 05:28:08;;;;;;;7.20;4.28;;;;;;;;;;5131472;27;20022;-84
2022/04/19 05:30:33;;;;;;;6.75;3.80;;;;;;;;;;5126279;27;20080;-83
2022/04/19 05:32:59;;;;;;;11.55;4.05;;;;;;;;;;5118995;27;20027;-74
2022/04/19 05:35:24;;;;;;;7.00;3.10;;;;;;;;;;5111746;28;20028;-74
2022/04/19 05:37:49;;;;;;;6.80;3.80;;;;;;;;;;5116840;28;20022;-76
2022/04/19 05:40:14;;;;;;;4.75;3.42;;;;;;;;;;5111696;28;20206;-76
2022/04/19 05:42:40;;;;;;;7.00;3.55;;;;;;;;;;5112866;28;20016;-76
2022/04/19 05:45:05;;;;;;;9.00;3.42;;;;;;;;;;5122111;27;20023;-77
2022/04/19 05:47:31;;;;;;;5.20;3.15;;;;;;;;;;5123944;27;20045;-79
2022/04/19 05:49:56;;;;;;;5.72;3.05;;;;;;;;;;5114316;27;20019;-75
2022/04/19 05:52:21;;;;;;;6.30;3.28;;;;;;;;;;5110912;28;20022;-75
2022/04/19 05:54:47;;;;;;;6.45;3.28;;;;;;;;;;5110838;28;20045;-75
2022/04/19 05:57:12;;;;;;;7.30;3.55;;;;;;;;;;5119844;27;20114;-76
2022/04/19 05:59:37;;;;;;;6.88;3.50;;;;;;;;;;5123443;27;21367;-75
2022/04/19 06:04:53;;;;;;;4.97;3.05;;;;;;;;;;5112078;28;20305;-74
2022/04/19 06:07:19;;;;;;;4.80;3.13;;;;;;;;;;5112782;28;20031;-77
2022/04/19 06:09:44;;;;;;;5.88;3.10;;;;;;;;;;5120005;27;20149;-79
2022/04/19 06:12:09;;;;;;;6.10;3.75;;;;;;;;;;5122172;27;20019;-75
2022/04/19 06:14:35;;;;;;;6.80;3.40;;;;;;;;;;5112628;27;20020;-75
2022/04/19 06:17:00;;;;;;;5.82;3.20;;;;;;;;;;5110443;28;20048;-75
2022/04/19 06:19:27;;;;;;;5.10;3.20;;;;;;;;;;5112771;28;20038;-75
2022/04/19 06:21:52;;;;;;;7.40;3.50;;;;;;;;;;5120903;27;20014;-75
2022/04/19 06:24:18;;;;;;;6.05;3.38;;;;;;;;;;5114936;28;20384;-74
2022/04/19 06:26:44;;;;;;;5.90;3.40;;;;;;;;;;5118880;28;20016;-76
2022/04/19 06:29:09;;;;;;;7.45;3.88;;;;;;;;;;5125718;27;20051;-76
2022/04/19 06:31:34;;;;;;;7.82;3.47;;;;;;;;;;5117728;27;20031;-76
2022/04/19 06:33:59;;;;;;;8.73;4.32;;;;;;;;;;5127669;27;20031;-75
2022/04/19 06:36:24;;;;;;;14.97;6.80;;;;;;;;;;5121961;27;20410;-78
2022/04/19 06:38:50;;;;;;;54.10;24.38;;;;;;;;;;5127882;27;20320;-75
2022/04/19 06:41:15;;;;;;;7.72;5.00;;;;;;;;;;5127766;27;20026;-77
2022/04/19 06:43:40;;;;;;;6.53;3.42;;;;;;;;;;5124556;27;20012;-76
2022/04/19 06:46:07;;;;;;;9.45;4.32;;;;;;;;;;5126001;27;20475;-75
2022/04/19 06:48:34;;;;;;;6.10;3.40;;;;;;;;;;5122026;27;20080;-75
2022/04/19 06:51:00;;;;;;;5.30;3.17;;;;;;;;;;5123421;27;20039;-75
2022/04/19 06:53:29;;;;;;;8.65;3.72;;;;;;;;;;5121993;27;20016;-75
2022/04/19 06:55:55;;;;;;;5.18;3.47;;;;;;;;;;5123550;27;20027;-75
2022/04/19 06:58:20;;;;;;;7.63;3.50;;;;;;;;;;5123901;27;20037;-77
2022/04/19 07:00:45;;;;;;;8.55;4.07;;;;;;;;;;5124900;27;20035;-75
2022/04/19 07:03:11;;;;;;;6.80;3.38;;;;;;;;;;5123051;27;20043;-77
2022/04/19 07:05:36;;;;;;;5.68;3.40;;;;;;;;;;5125314;27;20019;-76
2022/04/19 07:08:04;;;;;;;11.20;3.88;;;;;;;;;;5125460;27;20031;-77
2022/04/19 07:10:30;;;;;;;5.00;3.40;;;;;;;;;;5130446;27;20031;-75
2022/04/19 07:12:55;;;;;;;5.20;3.25;;;;;;;;;;5121657;27;20448;-75
2022/04/19 07:15:20;;;;;;;5.17;3.07;;;;;;;;;;5124096;27;20103;-74
2022/04/19 07:17:46;;;;;;;11.13;3.57;;;;;;;;;;5120410;27;20357;-75
2022/04/19 07:28:22;;;;;;;9.10;4.63;;;;;;;;;;5117088;28;20026;-76
2022/04/19 07:30:48;;;;;;;6.50;3.70;;;;;;;;;;5114985;28;20027;-74
2022/04/19 07:33:13;;;;;;;9.75;4.78;;;;;;;;;;5120958;28;20248;-75
2022/04/19 07:35:38;;;;;;;10.20;4.60;;;;;;;;;;5114200;28;20016;-76
2022/04/19 07:38:03;;;;;;;10.77;4.22;;;;;;;;;;5113491;28;20283;-74
2022/04/19 07:40:29;;;;;;;10.50;4.38;;;;;;;;;;5112958;28;20453;-74
2022/04/19 07:42:55;;;;;;;13.63;5.20;;;;;;;;;;5113986;28;20008;-75
2022/04/19 07:45:20;;;;;;;10.48;4.80;;;;;;;;;;5114147;28;20019;-74
2022/04/19 07:47:45;;;;;;;8.83;4.30;;;;;;;;;;5113840;28;20467;-74
2022/04/19 07:50:10;;;;;;;7.13;3.75;;;;;;;;;;5114062;28;20886;-74
2022/04/19 07:52:36;;;;;;;9.57;4.50;;;;;;;;;;5112719;28;20023;-75
2022/04/19 07:55:01;;;;;;;8.88;3.92;;;;;;;;;;5114208;28;20248;-77
2022/04/19 07:57:26;;;;;;;10.63;4.03;;;;;;;;;;5113942;28;20019;-76
2022/04/19 07:59:52;;;;;;;10.25;4.25;;;;;;;;;;5113442;28;20023;-78
2022/04/19 08:02:19;;;;;;;13.73;4.20;;;;;;;;;;5116531;28;20015;-76
2022/04/19 08:04:44;;;;;;;9.27;4.20;;;;;;;;;;5113827;28;20110;-76
2022/04/19 08:07:09;;;;;;;8.90;4.90;;;;;;;;;;5112644;28;20043;-76
2022/04/19 08:09:35;;;;;;;10.57;4.70;;;;;;;;;;5113635;28;20264;-75
2022/04/19 08:12:01;;;;;;;7.38;4.05;;;;;;;;;;5113623;28;20467;-75
2022/04/19 08:14:26;;;;;;;6.20;4.03;;;;;;;;;;5113505;28;20012;-75
2022/04/19 08:16:51;;;;;;;9.82;4.82;;;;;;;;;;5113545;28;20051;-75
2022/04/19 08:19:17;;;;;;;10.45;4.57;;;;;;;;;;5113488;28;20106;-74
2022/04/19 08:21:42;;;;;;;8.20;4.45;;;;;;;;;;5113254;28;20042;-76
2022/04/19 08:24:07;;;;;;;11.90;6.63;;;;;;;;;;5113000;28;20020;-75
2022/04/19 08:26:32;;;;;;;9.50;3.78;;;;;;;;;;5113204;28;20023;-76
2022/04/19 08:28:58;;;;;;;9.82;4.20;;;;;;;;;;5113332;28;20069;-75
2022/04/19 08:31:23;;;;;;;6.85;3.92;;;;;;;;;;5113216;28;20079;-75
2022/04/19 08:33:48;;;;;;;5.95;3.65;;;;;;;;;;5113106;28;20066;-75
2022/04/19 08:36:14;;;;;;;6.00;3.85;;;;;;;;;;5113004;28;20027;-75
2022/04/19 08:38:39;;;;;;;8.48;4.80;;;;;;;;;;5112975;28;20501;-76
2022/04/19 08:41:05;;;;;;;8.35;4.25;;;;;;;;;;5113015;28;20015;-77
2022/04/19 08:43:30;;;;;;;10.38;4.47;;;;;;;;;;5112921;28;20023;-75
2022/04/19 08:45:55;;;;;;;5.50;3.90;;;;;;;;;;5112978;28;20047;-76
2022/04/19 08:48:24;;;;;;;6.30;3.90;;;;;;;;;;5113010;28;20260;-75
2022/04/19 08:50:51;;;;;;;7.35;3.67;;;;;;;;;;5112656;28;20042;-76
2022/04/19 08:58:44;;;;;;;9.32;3.67;;;;;;;;;;5112739;28;20193;-75
2022/04/19 09:01:09;;;;;;;9.73;4.10;;;;;;;;;;5112985;28;20122;-76
2022/04/19 09:03:37;;;;;;;7.70;4.23;;;;;;;;;;5112308;28;20338;-78
2022/04/19 09:06:03;;;;;;;13.00;4.47;;;;;;;;;;5112384;28;20264;-76
2022/04/19 09:08:29;;;;;;;8.30;3.90;;;;;;;;;;5111321;28;20422;-76
2022/04/19 09:11:04;;;;;;;8.82;4.65;;;;;;;;;;5112649;28;20083;-77
2022/04/19 09:13:29;;;;;;;;;;;;;;;;;;5113241;28;20019;-77
2022/04/19 09:15:54;;;;;;;8.98;4.85;;;;;;;;;;5112221;28;19934;-76
2022/04/19 09:18:29;;;;;;;6.22;4.25;;;;;;;;;;5112138;28;20043;-75
2022/04/19 09:20:56;;;;;;;11.07;5.25;;;;;;;;;;5114528;28;20026;-76
2022/04/19 09:23:25;;;;;;;7.43;4.00;;;;;;;;;;5119502;28;20023;-76
2022/04/19 09:25:53;;;;;;;10.57;4.60;;;;;;;;;;5119323;28;20027;-75
2022/04/19 09:28:19;;;;;;;7.10;3.83;;;;;;;;;;5111941;28;20020;-76
2022/04/19 09:30:57;;;;;;;6.38;3.90;;;;;;;;;;5111737;28;20027;-76
2022/04/19 09:33:24;;;;;;;8.30;3.95;;;;;;;;;;5111052;28;20016;-75
2022/04/19 09:35:50;;;;;;;5.97;3.53;;;;;;;;;;5117804;27;20015;-76
2022/04/19 09:38:16;;;;;;;8.25;4.68;;;;;;;;;;5133363;27;20011;-79
2022/04/19 09:40:43;;;;;;;7.65;3.83;;;;;;;;;;5135367;27;20576;-76
2022/04/19 09:43:10;;;;;;;7.55;3.95;;;;;;;;;;5136636;27;20486;-77
2022/04/19 09:45:45;;;;;;;7.93;4.20;;;;;;;;;;5136082;27;20534;-75
2022/04/19 09:48:20;;;;;;;7.40;4.05;;;;;;;;;;5132618;27;20018;-77
2022/04/19 09:50:45;;;;;;;;;;;;;;;;;;5133553;27;20027;-75
2022/04/19 09:53:10;;;;;;;6.57;4.10;;;;;;;;;;5132708;27;19993;-76
2022/04/19 09:55:35;;;;;;;8.05;4.10;;;;;;;;;;5130662;27;20428;-77
2022/04/19 09:58:01;;;;;;;6.50;3.93;;;;;;;;;;5132400;27;20027;-77
2022/04/19 10:00:27;;;;;;;6.60;3.67;;;;;;;;;;5131998;27;20663;-76
2022/04/19 10:08:21;;;;;;;7.82;3.97;;;;;;;;;;5132113;27;20436;-75
2022/04/19 10:10:48;;;;;;;10.80;3.75;;;;;;;;;;5131966;27;20022;-78
2022/04/19 10:13:14;;;;;;;15.88;4.30;;;;;;;;;;5131941;27;20065;-75
2022/04/19 10:15:40;;;;;;;9.20;4.22;;;;;;;;;;5131726;27;20122;-75
2022/04/19 10:18:07;;;;;;;8.07;3.45;;;;;;;;;;5132017;27;20024;-75
2022/04/19 10:20:34;;;;;;;5.22;3.10;;;;;;;;;;5132089;27;20464;-75
2022/04/19 10:23:04;;;;;;;7.40;3.90;;;;;;;;;;5131874;27;20098;-75
2022/04/19 10:25:46;;;;;;;7.65;3.58;;;;;;;;;;5127928;27;20015;-75
2022/04/19 10:28:12;;;;;;;6.32;3.40;;;;;;;;;;5131798;27;20042;-76
2022/04/19 10:30:38;;;;;;;6.57;2.60;;;;;;;;;;5131948;27;20467;-76
2022/04/19 10:33:22;;;;;;;3.95;2.50;;;;;;;;;;5130376;28;20024;-75
2022/04/19 10:36:26;;;;;;;3.95;2.47;;;;;;;;;;5131470;28;20539;-79
2022/04/19 10:39:08;;;;;;;4.40;2.13;;;;;;;;;;5068611;28;20591;-76
2022/04/19 10:41:52;;;;;;;3.70;2.35;;;;;;;;;;5068385;28;20025;-75
2022/04/19 10:44:21;;;;;;;3.35;2.20;;;;;;;;;;5112709;27;20046;-75
2022/04/19 10:46:46;;;;;;;4.85;2.50;;;;;;;;;;5132857;27;20047;-76
2022/04/19 10:49:22;;;;;;;3.60;2.42;;;;;;;;;;5131707;28;20427;-75
2022/04/19 10:51:47;;;;;;;3.00;2.03;;;;;;;;;;5131802;27;20031;-75
2022/04/19 10:54:13;;;;;;;3.45;2.22;;;;;;;;;;5132403;28;20094;-76
2022/04/19 10:56:56;;;;;;;3.83;2.15;;;;;;;;;;5131925;27;20360;-76
2022/04/19 10:59:22;;;;;;;3.33;2.17;;;;;;;;;;5131832;28;20015;-77
2022/04/19 11:01:47;;;;;;;2.75;2.00;;;;;;;;;;5131913;28;20007;-77
2022/04/19 11:04:32;;;;;;;4.82;2.50;;;;;;;;;;5131561;28;20375;-79
2022/04/19 11:06:57;;;;;;;3.85;2.50;;;;;;;;;;5131696;28;20383;-78
2022/04/19 11:09:26;;;;;;;3.55;2.05;;;;;;;;;;5131547;27;20027;-78
2022/04/19 11:11:56;;;;;;;3.90;2.83;;;;;;;;;;5131629;27;20031;-75
2022/04/19 11:14:21;;;;;;;3.22;2.15;;;;;;;;;;5131792;27;20042;-75
2022/04/19 11:16:53;;;;;;;5.03;2.30;;;;;;;;;;5134012;27;20547;-76
2022/04/19 11:19:20;;;;;;;6.25;2.58;;;;;;;;;;5135631;27;20019;-75
2022/04/19 11:21:51;;;;;;;4.05;2.65;;;;;;;;;;5135326;27;20064;-75
2022/04/19 11:24:35;;;;;;;5.78;2.17;;;;;;;;;;5135758;27;20099;-77
2022/04/19 11:27:00;;;;;;;4.10;2.28;;;;;;;;;;5135397;27;20023;-77
2022/04/19 11:29:25;;;;;;;4.10;2.17;;;;;;;;;;5134218;27;20375;-76
2022/04/19 11:32:05;;;;;;;3.35;2.00;;;;;;;;;;5134952;27;20035;-76
2022/04/19 11:34:31;;;;;;;2.55;1.80;;;;;;;;;;5135717;27;20027;-81
2022/04/19 11:36:56;;;;;;;3.58;1.83;;;;;;;;;;5136979;27;20088;-75
2022/04/19 11:47:48;;;;;;;8.05;2.08;;;;;;;;;;5126306;27;20080;-75
2022/04/19 11:50:31;;;;;;;4.68;2.53;;;;;;;;;;5116126;27;20449;-77
2022/04/19 11:52:56;;;;;;;41.90;20.42;;;;;;;;;;5127428;27;20030;-75
2022/04/19 11:55:25;;;;;;;7.75;2.40;;;;;;;;;;5118822;28;20004;-76
2022/04/19 11:58:09;;;;;;;3.67;2.08;;;;;;;;;;5133518;27;20034;-76
2022/04/19 12:00:35;;;;;;;3.63;2.40;;;;;;;;;;5119771;27;20106;-77
2022/04/19 12:03:02;;;;;;;3.72;2.10;;;;;;;;;;5126074;27;20126;-79
2022/04/19 12:05:28;;;;;;;4.70;2.28;;;;;;;;;;5121530;27;20039;-79
2022/04/19 12:07:55;;;;;;;3.90;2.15;;;;;;;;;;5121741;27;20016;-77
2022/04/19 12:10:21;;;;;;;4.22;2.40;;;;;;;;;;5119932;27;20024;-75
2022/04/19 12:12:47;;;;;;;3.88;1.90;;;;;;;;;;5122438;27;20011;-76
2022/04/19 12:15:12;;;;;;;4.75;2.28;;;;;;;;;;5119005;27;20021;-76
2022/04/19 12:17:44;;;;;;;3.85;2.00;;;;;;;;;;5122325;27;20106;-75
2022/04/19 12:20:10;;;;;;;3.38;2.22;;;;;;;;;;5121956;27;20019;-77
2022/04/19 12:22:38;;;;;;;4.00;1.92;;;;;;;;;;5123346;27;20360;-78
2022/04/19 12:25:04;;;;;;;4.38;2.35;;;;;;;;;;5121840;27;20023;-77
2022/04/19 12:27:34;;;;;;;2.85;1.83;;;;;;;;;;5128776;27;20038;-81
2022/04/19 12:30:12;;;;;;;3.08;2.10;;;;;;;;;;5125973;27;20495;-78
2022/04/19 12:32:54;;;;;;;3.70;2.10;;;;;;;;;;5123766;27;20043;-76
2022/04/19 12:35:24;;;;;;;3.83;2.17;;;;;;;;;;5124045;27;20392;-74
2022/04/19 12:38:07;;;;;;;2.90;1.90;;;;;;;;;;5120609;27;20016;-75
2022/04/19 12:40:33;;;;;;;3.35;2.00;;;;;;;;;;5122078;27;20042;-75
2022/04/19 12:42:59;;;;;;;3.40;2.22;;;;;;;;;;5120577;27;20030;-76
2022/04/19 12:45:31;;;;;;;3.72;2.33;;;;;;;;;;5123222;27;20019;-75
2022/04/19 12:48:00;;;;;;;4.75;2.17;;;;;;;;;;5122317;27;20031;-76
2022/04/19 12:50:25;;;;;;;5.53;2.70;;;;;;;;;;5120422;27;20392;-74
2022/04/19 12:52:50;;;;;;;4.93;2.53;;;;;;;;;;5122597;27;20023;-74
2022/04/19 12:55:16;;;;;;;3.40;2.20;;;;;;;;;;5121698;27;20031;-77
2022/04/19 12:57:42;;;;;;;4.38;2.40;;;;;;;;;;5120714;27;20244;-76
2022/04/19 13:00:09;;;;;;;4.28;2.20;;;;;;;;;;5120874;27;20069;-76
2022/04/19 13:02:35;;;;;;;4.82;2.50;;;;;;;;;;5122752;27;20026;-75
2022/04/19 13:05:00;;;;;;;4.32;2.20;;;;;;;;;;5122111;27;20028;-76
2022/04/19 13:13:00;;;;;;;2.83;2.13;;;;;;;;;;5119886;27;20088;-76
2022/04/19 13:15:25;;;;;;;3.27;2.10;;;;;;;;;;5114139;27;20008;-75
2022/04/19 13:17:50;;;;;;;4.15;2.60;;;;;;;;;;5118566;27;20342;-75
2022/04/19 13:20:15;;;;;;;4.77;2.00;;;;;;;;;;5122553;27;20033;-77
2022/04/19 13:22:41;;;;;;;3.20;2.07;;;;;;;;;;5128472;27;20264;-76
2022/04/19 13:25:07;;;;;;;3.78;2.17;;;;;;;;;;5119651;27;20027;-76
2022/04/19 13:27:36;;;;;;;4.32;2.30;;;;;;;;;;5120473;27;20020;-74
2022/04/19 13:30:02;;;;;;;3.55;2.10;;;;;;;;;;5128525;27;20034;-76
2022/04/19 13:32:28;;;;;;;3.30;2.22;;;;;;;;;;5119277;27;20504;-75
2022/04/19 13:34:53;;;;;;;4.00;2.20;;;;;;;;;;5113319;28;20031;-75
2022/04/19 13:38:23;;;;;;;3.30;1.90;;;;;;;;;;5121479;27;20071;-76
2022/04/19 13:40:04;;;;;;;3.15;2.20;;;;;;;;;;5116864;27;20024;-77
2022/04/19 13:42:29;;;;;;;3.90;2.25;;;;;;;;;;5127036;27;20482;-74
2022/04/19 13:44:54;;;;;;;5.43;2.05;;;;;;;;;;5117896;27;20460;-74
2022/04/19 13:47:20;;;;;;;3.25;1.90;;;;;;;;;;5122221;27;20019;-75
2022/04/19 13:49:45;;;;;;;3.10;1.90;;;;;;;;;;5125490;27;20019;-76
2022/04/19 13:52:10;;;;;;;3.58;2.17;;;;;;;;;;5115098;27;20039;-75
2022/04/19 13:54:37;;;;;;;11.43;6.23;;;;;;;;;;5128514;27;20007;-74
2022/04/19 13:57:02;;;;;;;4.93;2.40;;;;;;;;;;5118711;27;20728;-75
2022/04/19 13:59:27;;;;;;;3.13;1.85;;;;;;;;;;5122659;27;20015;-76
2022/04/19 14:01:53;;;;;;;2.90;1.90;;;;;;;;;;5132469;27;20027;-75
2022/04/19 14:04:18;;;;;;;2.60;1.70;;;;;;;;;;5120908;27;21110;-75
2022/04/19 14:06:43;;;;;;;2.97;1.80;;;;;;;;;;5127726;27;20011;-75
2022/04/19 14:09:09;;;;;;;3.78;1.95;;;;;;;;;;5130798;27;20262;-76
2022/04/19 14:11:35;;;;;;;3.40;2.03;;;;;;;;;;5119778;27;20023;-75
2022/04/19 14:14:00;;;;;;;6.78;2.10;;;;;;;;;;5126484;27;20459;-78
2022/04/19 14:16:25;;;;;;;3.03;2.13;;;;;;;;;;5116116;27;20040;-76
2022/04/19 14:18:51;;;;;;;5.55;2.35;;;;;;;;;;5126618;28;20028;-77
2022/04/19 14:21:16;;;;;;;2.55;2.00;;;;;;;;;;5111101;28;20026;-74
2022/04/19 14:23:42;;;;;;;3.40;2.10;;;;;;;;;;5126097;28;20011;-76
2022/04/19 14:26:07;;;;;;;3.17;1.92;;;;;;;;;;5116845;28;20267;-76
2022/04/19 14:34:00;;;;;;;4.68;2.30;;;;;;;;;;5116499;28;20034;-74
2022/04/19 14:36:25;;;;;;;4.82;2.40;;;;;;;;;;5121592;28;20031;-74
2022/04/19 14:38:51;;;;;;;2.88;1.83;;;;;;;;;;5116182;28;20115;-75
2022/04/19 14:41:19;;;;;;;3.03;1.90;;;;;;;;;;5115001;27;20043;-75
2022/04/19 14:43:45;;;;;;;3.33;2.20;;;;;;;;;;5117694;28;20514;-74
2022/04/19 14:46:10;;;;;;;3.17;1.88;;;;;;;;;;5117037;28;20028;-75
2022/04/19 14:48:35;;;;;;;4.20;2.17;;;;;;;;;;5109431;28;20103;-75
2022/04/19 14:53:44;;;;;;;5.55;2.30;;;;;;;;;;5113065;27;20562;-77
2022/04/19 14:56:09;;;;;;;4.27;2.17;;;;;;;;;;5114876;27;20012;-76
2022/04/19 14:58:34;;;;;;;3.83;2.15;;;;;;;;;;5121558;27;20695;-78
2022/04/19 15:01:00;;;;;;;3.58;1.98;;;;;;;;;;5120567;27;20020;-77
2022/04/19 15:03:25;;;;;;;4.18;2.33;;;;;;;;;;5116660;27;20065;-76
2022/04/19 15:05:50;;;;;;;4.30;2.17;;;;;;;;;;5113787;27;20043;-77
2022/04/19 15:08:16;;;;;;;4.43;2.10;;;;;;;;;;5123222;27;20094;-76
2022/04/19 15:10:41;;;;;;;3.53;1.98;;;;;;;;;;5117440;27;20772;-76
2022/04/19 15:13:07;;;;;;;3.47;2.00;;;;;;;;;;5112782;27;20027;-76
2022/04/19 15:15:32;;;;;;;3.27;2.00;;;;;;;;;;5117016;27;22230;-78
2022/04/19 15:17:58;;;;;;;3.65;2.13;;;;;;;;;;5122394;27;20298;-78
2022/04/19 15:20:23;;;;;;;2.70;2.05;;;;;;;;;;5120722;27;20022;-76
2022/04/19 15:22:49;;;;;;;3.50;2.30;;;;;;;;;;5111855;28;20051;-77
2022/04/19 15:25:15;;;;;;;3.25;2.13;;;;;;;;;;5118911;27;20019;-85
2022/04/19 15:27:40;;;;;;;4.30;2.38;;;;;;;;;;5128277;27;20467;-80
2022/04/19 15:30:05;;;;;;;2.97;2.00;;;;;;;;;;5116788;27;20168;-80
2022/04/19 15:32:31;;;;;;;4.05;2.50;;;;;;;;;;5122675;27;20280;-78
2022/04/19 15:34:56;;;;;;;2.75;1.98;;;;;;;;;;5114136;27;20023;-80
2022/04/19 15:37:21;;;;;;;2.90;1.92;;;;;;;;;;5123347;27;20394;-79
2022/04/19 15:39:46;;;;;;;3.53;2.30;;;;;;;;;;5118135;27;20043;-80